Terminal Aerodrome Forecast
Issued by NWS Sterling, VA

Current Version | Previous Version | Graphics & Text | Print | Product List | Glossary On
Versions: 1 2 3 4 5 6 7 8 9 10 11 12 13 14
000
FTUS41 KLWX 011700
TAFMRB
TAF
KMRB 011724Z 0118/0218 24005KT P6SM SCT035 BKN050
     FM011900 22008KT P6SM VCTS BKN050CB
     FM012300 21005KT P6SM SCT050 BKN090
     FM020200 22004KT P6SM FEW090 SCT250
     FM021700 23008KT P6SM BKN090=

USA.gov is the U.S. government's official web portal to all federal, state and local government web resources and services.